sensor_id;sensor_type;location;lat;lon;timestamp;P1;durP1;ratioP1;P2;durP2;ratioP2
37065;SDS011;22981;43.080;25.550;2024-01-16T00:01:04;8.48;;;7.25;;
37065;SDS011;22981;43.080;25.550;2024-01-16T00:03:32;9.85;;;7.00;;
37065;SDS011;22981;43.080;25.550;2024-01-16T00:06:00;12.90;;;7.90;;
37065;SDS011;22981;43.080;25.550;2024-01-16T00:08:27;10.30;;;7.45;;
37065;SDS011;22981;43.080;25.550;2024-01-16T00:10:55;9.70;;;7.30;;
37065;SDS011;22981;43.080;25.550;2024-01-16T00:13:22;11.50;;;7.42;;
37065;SDS011;22981;43.080;25.550;2024-01-16T00:15:50;9.00;;;6.22;;
37065;SDS011;22981;43.080;25.550;2024-01-16T00:18:18;8.15;;;6.22;;
37065;SDS011;22981;43.080;25.550;2024-01-16T00:20:45;7.20;;;5.67;;
37065;SDS011;22981;43.080;25.550;2024-01-16T00:23:13;7.12;;;5.65;;
37065;SDS011;22981;43.080;25.550;2024-01-16T00:25:40;8.55;;;4.90;;
37065;SDS011;22981;43.080;25.550;2024-01-16T00:28:08;5.75;;;4.58;;
37065;SDS011;22981;43.080;25.550;2024-01-16T00:30:35;5.28;;;4.25;;
37065;SDS011;22981;43.080;25.550;2024-01-16T00:33:03;5.45;;;3.90;;
37065;SDS011;22981;43.080;25.550;2024-01-16T00:35:30;5.62;;;4.55;;
37065;SDS011;22981;43.080;25.550;2024-01-16T00:37:58;7.03;;;4.30;;
37065;SDS011;22981;43.080;25.550;2024-01-16T00:40:25;6.28;;;4.55;;
37065;SDS011;22981;43.080;25.550;2024-01-16T00:42:53;6.22;;;4.50;;
37065;SDS011;22981;43.080;25.550;2024-01-16T00:45:21;5.70;;;4.67;;
37065;SDS011;22981;43.080;25.550;2024-01-16T00:47:49;6.17;;;4.75;;
37065;SDS011;22981;43.080;25.550;2024-01-16T00:50:17;7.80;;;4.90;;
37065;SDS011;22981;43.080;25.550;2024-01-16T00:52:44;7.25;;;5.00;;
37065;SDS011;22981;43.080;25.550;2024-01-16T00:55:12;7.00;;;4.97;;
37065;SDS011;22981;43.080;25.550;2024-01-16T00:57:39;8.28;;;6.25;;
37065;SDS011;22981;43.080;25.550;2024-01-16T01:00:07;8.60;;;6.42;;
37065;SDS011;22981;43.080;25.550;2024-01-16T01:02:36;8.45;;;6.25;;
37065;SDS011;22981;43.080;25.550;2024-01-16T01:05:04;6.90;;;5.33;;
37065;SDS011;22981;43.080;25.550;2024-01-16T01:07:33;6.78;;;5.12;;
37065;SDS011;22981;43.080;25.550;2024-01-16T01:10:01;8.18;;;6.25;;
37065;SDS011;22981;43.080;25.550;2024-01-16T01:12:29;18.77;;;12.65;;
37065;SDS011;22981;43.080;25.550;2024-01-16T01:14:57;16.55;;;11.25;;
37065;SDS011;22981;43.080;25.550;2024-01-16T01:17:24;16.60;;;11.50;;
37065;SDS011;22981;43.080;25.550;2024-01-16T01:19:52;14.70;;;8.95;;
37065;SDS011;22981;43.080;25.550;2024-01-16T01:22:20;16.10;;;8.55;;
37065;SDS011;22981;43.080;25.550;2024-01-16T01:24:47;10.65;;;8.05;;
37065;SDS011;22981;43.080;25.550;2024-01-16T01:27:15;14.68;;;8.95;;
37065;SDS011;22981;43.080;25.550;2024-01-16T01:29:42;11.00;;;7.75;;
37065;SDS011;22981;43.080;25.550;2024-01-16T01:32:10;12.70;;;8.78;;
37065;SDS011;22981;43.080;25.550;2024-01-16T01:34:40;10.20;;;8.08;;
37065;SDS011;22981;43.080;25.550;2024-01-16T01:37:10;10.58;;;7.22;;
37065;SDS011;22981;43.080;25.550;2024-01-16T01:39:37;10.48;;;7.72;;
37065;SDS011;22981;43.080;25.550;2024-01-16T01:42:05;10.45;;;7.42;;
37065;SDS011;22981;43.080;25.550;2024-01-16T01:44:33;12.65;;;7.40;;
37065;SDS011;22981;43.080;25.550;2024-01-16T01:47:00;11.95;;;8.95;;
37065;SDS011;22981;43.080;25.550;2024-01-16T01:49:28;20.05;;;15.58;;
37065;SDS011;22981;43.080;25.550;2024-01-16T01:51:57;20.10;;;15.18;;
37065;SDS011;22981;43.080;25.550;2024-01-16T01:54:25;14.93;;;11.48;;
37065;SDS011;22981;43.080;25.550;2024-01-16T01:56:54;13.43;;;9.38;;
37065;SDS011;22981;43.080;25.550;2024-01-16T01:59:21;10.88;;;7.72;;
37065;SDS011;22981;43.080;25.550;2024-01-16T02:01:51;9.18;;;6.83;;
37065;SDS011;22981;43.080;25.550;2024-01-16T02:04:19;9.78;;;6.55;;
37065;SDS011;22981;43.080;25.550;2024-01-16T02:06:48;9.03;;;6.05;;
37065;SDS011;22981;43.080;25.550;2024-01-16T02:09:16;8.55;;;6.20;;
37065;SDS011;22981;43.080;25.550;2024-01-16T02:11:43;10.00;;;6.60;;
37065;SDS011;22981;43.080;25.550;2024-01-16T02:14:11;8.08;;;6.22;;
37065;SDS011;22981;43.080;25.550;2024-01-16T02:16:39;8.65;;;6.37;;
37065;SDS011;22981;43.080;25.550;2024-01-16T02:19:09;9.43;;;6.37;;
37065;SDS011;22981;43.080;25.550;2024-01-16T02:21:39;10.63;;;7.03;;
37065;SDS011;22981;43.080;25.550;2024-01-16T02:24:08;10.15;;;7.12;;
37065;SDS011;22981;43.080;25.550;2024-01-16T02:26:37;9.10;;;6.30;;
37065;SDS011;22981;43.080;25.550;2024-01-16T02:29:05;8.33;;;6.22;;
37065;SDS011;22981;43.080;25.550;2024-01-16T02:31:33;8.88;;;6.47;;
37065;SDS011;22981;43.080;25.550;2024-01-16T02:34:01;10.98;;;7.22;;
37065;SDS011;22981;43.080;25.550;2024-01-16T02:36:30;10.78;;;8.00;;
37065;SDS011;22981;43.080;25.550;2024-01-16T02:38:59;9.43;;;7.42;;
37065;SDS011;22981;43.080;25.550;2024-01-16T02:41:26;9.15;;;7.37;;
37065;SDS011;22981;43.080;25.550;2024-01-16T02:43:54;8.43;;;6.47;;
37065;SDS011;22981;43.080;25.550;2024-01-16T02:46:22;7.80;;;5.65;;
37065;SDS011;22981;43.080;25.550;2024-01-16T02:48:50;6.83;;;5.42;;
37065;SDS011;22981;43.080;25.550;2024-01-16T02:51:17;7.85;;;5.58;;
37065;SDS011;22981;43.080;25.550;2024-01-16T02:53:45;8.00;;;5.17;;
37065;SDS011;22981;43.080;25.550;2024-01-16T02:56:12;8.30;;;5.75;;
37065;SDS011;22981;43.080;25.550;2024-01-16T02:58:40;8.28;;;6.65;;
37065;SDS011;22981;43.080;25.550;2024-01-16T03:01:08;8.60;;;6.45;;
37065;SDS011;22981;43.080;25.550;2024-01-16T03:03:35;8.98;;;7.28;;
37065;SDS011;22981;43.080;25.550;2024-01-16T03:06:03;11.63;;;8.43;;
37065;SDS011;22981;43.080;25.550;2024-01-16T03:08:30;12.53;;;9.00;;
37065;SDS011;22981;43.080;25.550;2024-01-16T03:10:58;11.48;;;8.88;;
37065;SDS011;22981;43.080;25.550;2024-01-16T03:13:25;12.50;;;9.23;;
37065;SDS011;22981;43.080;25.550;2024-01-16T03:15:53;12.28;;;8.85;;
37065;SDS011;22981;43.080;25.550;2024-01-16T03:18:21;11.60;;;8.88;;
37065;SDS011;22981;43.080;25.550;2024-01-16T03:20:48;10.58;;;8.28;;
37065;SDS011;22981;43.080;25.550;2024-01-16T03:23:16;13.50;;;10.13;;
37065;SDS011;22981;43.080;25.550;2024-01-16T03:25:44;16.07;;;12.30;;
37065;SDS011;22981;43.080;25.550;2024-01-16T03:28:12;18.40;;;14.10;;
37065;SDS011;22981;43.080;25.550;2024-01-16T03:30:40;18.95;;;15.55;;
37065;SDS011;22981;43.080;25.550;2024-01-16T03:33:08;21.73;;;15.53;;
37065;SDS011;22981;43.080;25.550;2024-01-16T03:35:35;23.27;;;16.50;;
37065;SDS011;22981;43.080;25.550;2024-01-16T03:38:03;23.45;;;17.15;;
37065;SDS011;22981;43.080;25.550;2024-01-16T03:40:30;24.72;;;17.60;;
37065;SDS011;22981;43.080;25.550;2024-01-16T03:43:00;21.77;;;16.27;;
37065;SDS011;22981;43.080;25.550;2024-01-16T03:45:28;23.22;;;17.35;;
37065;SDS011;22981;43.080;25.550;2024-01-16T03:47:55;26.15;;;18.85;;
37065;SDS011;22981;43.080;25.550;2024-01-16T03:50:23;26.50;;;17.82;;
37065;SDS011;22981;43.080;25.550;2024-01-16T03:52:51;25.70;;;17.65;;
37065;SDS011;22981;43.080;25.550;2024-01-16T03:55:18;24.95;;;18.73;;
37065;SDS011;22981;43.080;25.550;2024-01-16T03:57:46;22.90;;;17.85;;
37065;SDS011;22981;43.080;25.550;2024-01-16T04:00:14;22.58;;;17.15;;
37065;SDS011;22981;43.080;25.550;2024-01-16T04:02:42;23.35;;;16.30;;
37065;SDS011;22981;43.080;25.550;2024-01-16T04:05:09;23.40;;;17.12;;
37065;SDS011;22981;43.080;25.550;2024-01-16T04:07:37;23.57;;;16.80;;
37065;SDS011;22981;43.080;25.550;2024-01-16T04:10:06;23.50;;;17.52;;
37065;SDS011;22981;43.080;25.550;2024-01-16T04:12:34;24.35;;;18.52;;
37065;SDS011;22981;43.080;25.550;2024-01-16T04:15:01;26.90;;;18.80;;
37065;SDS011;22981;43.080;25.550;2024-01-16T04:17:29;29.05;;;20.08;;
37065;SDS011;22981;43.080;25.550;2024-01-16T04:19:56;33.18;;;22.50;;
37065;SDS011;22981;43.080;25.550;2024-01-16T04:22:24;31.17;;;22.67;;
37065;SDS011;22981;43.080;25.550;2024-01-16T04:24:52;29.48;;;22.07;;
37065;SDS011;22981;43.080;25.550;2024-01-16T04:27:19;26.82;;;20.15;;
37065;SDS011;22981;43.080;25.550;2024-01-16T04:29:47;29.92;;;22.32;;
37065;SDS011;22981;43.080;25.550;2024-01-16T04:32:14;31.97;;;22.52;;
37065;SDS011;22981;43.080;25.550;2024-01-16T04:34:42;32.73;;;23.80;;
37065;SDS011;22981;43.080;25.550;2024-01-16T04:37:09;30.92;;;22.85;;
37065;SDS011;22981;43.080;25.550;2024-01-16T04:39:37;29.18;;;21.65;;
37065;SDS011;22981;43.080;25.550;2024-01-16T04:42:04;30.27;;;22.67;;
37065;SDS011;22981;43.080;25.550;2024-01-16T04:44:32;32.17;;;23.25;;
37065;SDS011;22981;43.080;25.550;2024-01-16T04:46:59;30.60;;;22.67;;
37065;SDS011;22981;43.080;25.550;2024-01-16T04:49:27;30.68;;;21.85;;
37065;SDS011;22981;43.080;25.550;2024-01-16T04:51:55;29.67;;;21.35;;
37065;SDS011;22981;43.080;25.550;2024-01-16T04:54:23;29.48;;;21.82;;
37065;SDS011;22981;43.080;25.550;2024-01-16T04:56:50;28.50;;;21.07;;
37065;SDS011;22981;43.080;25.550;2024-01-16T04:59:18;30.77;;;20.62;;
37065;SDS011;22981;43.080;25.550;2024-01-16T05:01:45;28.57;;;20.30;;
37065;SDS011;22981;43.080;25.550;2024-01-16T05:04:13;28.57;;;20.62;;
37065;SDS011;22981;43.080;25.550;2024-01-16T05:06:40;26.10;;;19.85;;
37065;SDS011;22981;43.080;25.550;2024-01-16T05:09:08;26.05;;;18.95;;
37065;SDS011;22981;43.080;25.550;2024-01-16T05:11:36;25.90;;;19.10;;
37065;SDS011;22981;43.080;25.550;2024-01-16T05:14:03;25.37;;;19.42;;
37065;SDS011;22981;43.080;25.550;2024-01-16T05:16:31;26.10;;;19.75;;
37065;SDS011;22981;43.080;25.550;2024-01-16T05:18:58;25.15;;;18.87;;
37065;SDS011;22981;43.080;25.550;2024-01-16T05:21:26;24.80;;;19.32;;
37065;SDS011;22981;43.080;25.550;2024-01-16T05:23:54;26.10;;;18.73;;
37065;SDS011;22981;43.080;25.550;2024-01-16T05:26:21;21.45;;;16.20;;
37065;SDS011;22981;43.080;25.550;2024-01-16T05:28:49;18.32;;;14.28;;
37065;SDS011;22981;43.080;25.550;2024-01-16T05:31:16;17.02;;;13.43;;
37065;SDS011;22981;43.080;25.550;2024-01-16T05:33:45;16.90;;;13.08;;
37065;SDS011;22981;43.080;25.550;2024-01-16T05:36:12;14.85;;;11.83;;
37065;SDS011;22981;43.080;25.550;2024-01-16T05:38:40;15.40;;;12.18;;
37065;SDS011;22981;43.080;25.550;2024-01-16T05:41:07;14.23;;;11.45;;
37065;SDS011;22981;43.080;25.550;2024-01-16T05:43:35;12.55;;;9.93;;
37065;SDS011;22981;43.080;25.550;2024-01-16T05:46:02;10.80;;;8.63;;
37065;SDS011;22981;43.080;25.550;2024-01-16T05:48:30;12.63;;;9.13;;
37065;SDS011;22981;43.080;25.550;2024-01-16T05:50:58;12.40;;;9.15;;
37065;SDS011;22981;43.080;25.550;2024-01-16T05:53:26;10.60;;;7.10;;
37065;SDS011;22981;43.080;25.550;2024-01-16T05:55:53;8.15;;;6.65;;
37065;SDS011;22981;43.080;25.550;2024-01-16T05:58:21;8.05;;;6.20;;
37065;SDS011;22981;43.080;25.550;2024-01-16T06:00:49;10.53;;;7.58;;
37065;SDS011;22981;43.080;25.550;2024-01-16T06:03:16;8.70;;;7.17;;
37065;SDS011;22981;43.080;25.550;2024-01-16T06:05:44;9.13;;;7.03;;
37065;SDS011;22981;43.080;25.550;2024-01-16T06:08:11;8.83;;;6.80;;
37065;SDS011;22981;43.080;25.550;2024-01-16T06:10:39;7.15;;;5.15;;
37065;SDS011;22981;43.080;25.550;2024-01-16T06:13:07;5.80;;;4.45;;
37065;SDS011;22981;43.080;25.550;2024-01-16T06:15:34;8.30;;;5.05;;
37065;SDS011;22981;43.080;25.550;2024-01-16T06:18:02;8.33;;;5.30;;
37065;SDS011;22981;43.080;25.550;2024-01-16T06:20:29;5.72;;;4.65;;
37065;SDS011;22981;43.080;25.550;2024-01-16T06:22:58;6.83;;;5.03;;
37065;SDS011;22981;43.080;25.550;2024-01-16T06:25:26;7.15;;;4.42;;
37065;SDS011;22981;43.080;25.550;2024-01-16T06:27:53;18.07;;;11.22;;
37065;SDS011;22981;43.080;25.550;2024-01-16T06:30:26;7.72;;;5.60;;
37065;SDS011;22981;43.080;25.550;2024-01-16T06:32:50;7.78;;;5.60;;
37065;SDS011;22981;43.080;25.550;2024-01-16T06:35:17;5.80;;;4.60;;
37065;SDS011;22981;43.080;25.550;2024-01-16T06:37:45;16.82;;;4.95;;
37065;SDS011;22981;43.080;25.550;2024-01-16T06:40:12;6.72;;;4.35;;
37065;SDS011;22981;43.080;25.550;2024-01-16T06:42:40;6.28;;;5.25;;
37065;SDS011;22981;43.080;25.550;2024-01-16T06:45:08;4.40;;;4.00;;
37065;SDS011;22981;43.080;25.550;2024-01-16T06:47:35;5.30;;;3.67;;
37065;SDS011;22981;43.080;25.550;2024-01-16T06:50:03;4.17;;;3.42;;
37065;SDS011;22981;43.080;25.550;2024-01-16T06:52:31;4.05;;;3.30;;
37065;SDS011;22981;43.080;25.550;2024-01-16T06:54:59;5.72;;;4.10;;
37065;SDS011;22981;43.080;25.550;2024-01-16T06:57:26;4.97;;;3.58;;
37065;SDS011;22981;43.080;25.550;2024-01-16T06:59:54;3.10;;;2.62;;
37065;SDS011;22981;43.080;25.550;2024-01-16T07:02:21;4.60;;;3.60;;
37065;SDS011;22981;43.080;25.550;2024-01-16T07:04:49;3.90;;;3.22;;
37065;SDS011;22981;43.080;25.550;2024-01-16T07:07:16;3.72;;;2.92;;
37065;SDS011;22981;43.080;25.550;2024-01-16T07:09:45;3.37;;;2.90;;
37065;SDS011;22981;43.080;25.550;2024-01-16T07:12:13;3.27;;;2.30;;
37065;SDS011;22981;43.080;25.550;2024-01-16T07:14:40;3.50;;;2.65;;
37065;SDS011;22981;43.080;25.550;2024-01-16T07:17:08;4.90;;;2.65;;
37065;SDS011;22981;43.080;25.550;2024-01-16T07:19:35;3.50;;;2.60;;
37065;SDS011;22981;43.080;25.550;2024-01-16T07:22:03;3.33;;;2.37;;
37065;SDS011;22981;43.080;25.550;2024-01-16T07:24:30;3.87;;;2.80;;
37065;SDS011;22981;43.080;25.550;2024-01-16T07:26:58;3.65;;;2.95;;
37065;SDS011;22981;43.080;25.550;2024-01-16T07:29:26;3.33;;;2.77;;
37065;SDS011;22981;43.080;25.550;2024-01-16T07:31:53;4.08;;;2.50;;
37065;SDS011;22981;43.080;25.550;2024-01-16T07:34:21;7.97;;;3.00;;
37065;SDS011;22981;43.080;25.550;2024-01-16T07:36:48;4.70;;;2.83;;
37065;SDS011;22981;43.080;25.550;2024-01-16T07:39:16;3.33;;;2.55;;
37065;SDS011;22981;43.080;25.550;2024-01-16T07:41:44;3.35;;;2.33;;
37065;SDS011;22981;43.080;25.550;2024-01-16T07:44:11;5.30;;;4.80;;
37065;SDS011;22981;43.080;25.550;2024-01-16T07:46:39;2.30;;;2.08;;
37065;SDS011;22981;43.080;25.550;2024-01-16T07:49:07;2.83;;;2.42;;
37065;SDS011;22981;43.080;25.550;2024-01-16T07:51:35;3.12;;;2.02;;
37065;SDS011;22981;43.080;25.550;2024-01-16T07:54:06;3.02;;;1.77;;
37065;SDS011;22981;43.080;25.550;2024-01-16T07:59:03;18.60;;;3.60;;
37065;SDS011;22981;43.080;25.550;2024-01-16T08:01:31;13.05;;;2.62;;
37065;SDS011;22981;43.080;25.550;2024-01-16T08:03:58;2.55;;;2.35;;
37065;SDS011;22981;43.080;25.550;2024-01-16T08:06:26;7.85;;;6.92;;
37065;SDS011;22981;43.080;25.550;2024-01-16T08:08:53;6.05;;;2.77;;
37065;SDS011;22981;43.080;25.550;2024-01-16T08:11:21;2.45;;;1.90;;
37065;SDS011;22981;43.080;25.550;2024-01-16T08:13:49;2.08;;;1.60;;
37065;SDS011;22981;43.080;25.550;2024-01-16T08:16:16;5.72;;;2.20;;
37065;SDS011;22981;43.080;25.550;2024-01-16T08:18:44;2.40;;;2.20;;
37065;SDS011;22981;43.080;25.550;2024-01-16T08:21:11;2.58;;;1.82;;
37065;SDS011;22981;43.080;25.550;2024-01-16T08:23:40;3.55;;;1.90;;
37065;SDS011;22981;43.080;25.550;2024-01-16T08:26:08;3.85;;;1.77;;
37065;SDS011;22981;43.080;25.550;2024-01-16T08:28:36;1.77;;;1.35;;
37065;SDS011;22981;43.080;25.550;2024-01-16T08:31:04;3.35;;;2.30;;
37065;SDS011;22981;43.080;25.550;2024-01-16T08:33:31;1.70;;;1.60;;
37065;SDS011;22981;43.080;25.550;2024-01-16T08:35:59;2.15;;;1.60;;
37065;SDS011;22981;43.080;25.550;2024-01-16T08:38:27;3.40;;;1.80;;
37065;SDS011;22981;43.080;25.550;2024-01-16T08:40:55;2.27;;;1.47;;
37065;SDS011;22981;43.080;25.550;2024-01-16T08:43:22;2.00;;;1.50;;
37065;SDS011;22981;43.080;25.550;2024-01-16T08:45:50;3.75;;;1.98;;
37065;SDS011;22981;43.080;25.550;2024-01-16T08:48:17;4.00;;;1.40;;
37065;SDS011;22981;43.080;25.550;2024-01-16T08:50:45;1.67;;;1.47;;
37065;SDS011;22981;43.080;25.550;2024-01-16T08:53:12;1.80;;;1.50;;
37065;SDS011;22981;43.080;25.550;2024-01-16T08:55:40;1.95;;;1.72;;
37065;SDS011;22981;43.080;25.550;2024-01-16T08:58:08;6.40;;;3.00;;
37065;SDS011;22981;43.080;25.550;2024-01-16T09:00:35;3.05;;;1.82;;
37065;SDS011;22981;43.080;25.550;2024-01-16T09:03:03;2.15;;;1.50;;
37065;SDS011;22981;43.080;25.550;2024-01-16T09:05:31;1.98;;;1.50;;
37065;SDS011;22981;43.080;25.550;2024-01-16T09:08:00;3.33;;;2.00;;
37065;SDS011;22981;43.080;25.550;2024-01-16T09:10:28;3.22;;;2.10;;
37065;SDS011;22981;43.080;25.550;2024-01-16T09:12:55;3.92;;;3.52;;
37065;SDS011;22981;43.080;25.550;2024-01-16T09:15:24;16.67;;;14.35;;
37065;SDS011;22981;43.080;25.550;2024-01-16T09:17:52;2.27;;;2.00;;
37065;SDS011;22981;43.080;25.550;2024-01-16T09:20:19;3.45;;;3.00;;
37065;SDS011;22981;43.080;25.550;2024-01-16T09:22:47;2.65;;;1.15;;
37065;SDS011;22981;43.080;25.550;2024-01-16T09:25:15;1.52;;;1.30;;
37065;SDS011;22981;43.080;25.550;2024-01-16T09:27:42;1.47;;;1.37;;
37065;SDS011;22981;43.080;25.550;2024-01-16T09:30:10;3.62;;;1.30;;
37065;SDS011;22981;43.080;25.550;2024-01-16T09:32:38;1.65;;;1.30;;
37065;SDS011;22981;43.080;25.550;2024-01-16T09:35:06;1.60;;;1.22;;
37065;SDS011;22981;43.080;25.550;2024-01-16T09:37:35;1.87;;;1.52;;
37065;SDS011;22981;43.080;25.550;2024-01-16T09:40:02;4.97;;;2.50;;
37065;SDS011;22981;43.080;25.550;2024-01-16T09:42:30;2.65;;;1.62;;
37065;SDS011;22981;43.080;25.550;2024-01-16T09:44:59;18.60;;;14.03;;
37065;SDS011;22981;43.080;25.550;2024-01-16T09:50:02;7.53;;;6.08;;
37065;SDS011;22981;43.080;25.550;2024-01-16T09:52:29;1.10;;;1.00;;
37065;SDS011;22981;43.080;25.550;2024-01-16T09:54:57;3.15;;;1.52;;
37065;SDS011;22981;43.080;25.550;2024-01-16T09:57:25;3.08;;;1.80;;
37065;SDS011;22981;43.080;25.550;2024-01-16T09:59:55;2.00;;;1.10;;
37065;SDS011;22981;43.080;25.550;2024-01-16T10:02:24;1.30;;;1.20;;
37065;SDS011;22981;43.080;25.550;2024-01-16T10:04:51;1.95;;;1.50;;
37065;SDS011;22981;43.080;25.550;2024-01-16T10:07:19;2.25;;;2.05;;
37065;SDS011;22981;43.080;25.550;2024-01-16T10:09:49;1.50;;;1.20;;
37065;SDS011;22981;43.080;25.550;2024-01-16T10:12:17;1.40;;;1.20;;
37065;SDS011;22981;43.080;25.550;2024-01-16T10:14:44;2.00;;;1.70;;
37065;SDS011;22981;43.080;25.550;2024-01-16T10:17:13;4.97;;;3.50;;
37065;SDS011;22981;43.080;25.550;2024-01-16T10:19:52;7.10;;;3.33;;
37065;SDS011;22981;43.080;25.550;2024-01-16T10:27:41;4.83;;;2.35;;
37065;SDS011;22981;43.080;25.550;2024-01-16T10:30:09;4.60;;;2.00;;
37065;SDS011;22981;43.080;25.550;2024-01-16T10:32:37;2.42;;;2.00;;
37065;SDS011;22981;43.080;25.550;2024-01-16T10:35:06;2.37;;;1.85;;
37065;SDS011;22981;43.080;25.550;2024-01-16T10:37:49;4.47;;;3.05;;
37065;SDS011;22981;43.080;25.550;2024-01-16T10:40:17;9.98;;;5.53;;
37065;SDS011;22981;43.080;25.550;2024-01-16T10:42:58;5.92;;;3.58;;
37065;SDS011;22981;43.080;25.550;2024-01-16T10:45:27;4.67;;;2.60;;
37065;SDS011;22981;43.080;25.550;2024-01-16T10:48:01;5.20;;;3.55;;
37065;SDS011;22981;43.080;25.550;2024-01-16T10:50:30;4.30;;;2.77;;
37065;SDS011;22981;43.080;25.550;2024-01-16T10:53:04;8.25;;;6.08;;
37065;SDS011;22981;43.080;25.550;2024-01-16T10:55:29;5.15;;;3.77;;
37065;SDS011;22981;43.080;25.550;2024-01-16T10:57:58;6.72;;;5.65;;
37065;SDS011;22981;43.080;25.550;2024-01-16T11:00:27;2.20;;;2.00;;
37065;SDS011;22981;43.080;25.550;2024-01-16T11:05:32;3.27;;;2.42;;
37065;SDS011;22981;43.080;25.550;2024-01-16T11:08:02;9.03;;;6.12;;
37065;SDS011;22981;43.080;25.550;2024-01-16T11:10:31;3.85;;;2.75;;
37065;SDS011;22981;43.080;25.550;2024-01-16T11:13:02;10.38;;;7.78;;
37065;SDS011;22981;43.080;25.550;2024-01-16T11:15:31;12.80;;;7.60;;
37065;SDS011;22981;43.080;25.550;2024-01-16T11:17:59;3.90;;;2.80;;
37065;SDS011;22981;43.080;25.550;2024-01-16T11:20:28;5.47;;;3.67;;
37065;SDS011;22981;43.080;25.550;2024-01-16T11:22:56;31.97;;;18.95;;
37065;SDS011;22981;43.080;25.550;2024-01-16T11:25:30;4.60;;;3.33;;
37065;SDS011;22981;43.080;25.550;2024-01-16T11:28:14;1.95;;;1.07;;
37065;SDS011;22981;43.080;25.550;2024-01-16T11:30:42;3.62;;;3.12;;
37065;SDS011;22981;43.080;25.550;2024-01-16T11:34:11;2.67;;;1.67;;
37065;SDS011;22981;43.080;25.550;2024-01-16T11:36:01;2.45;;;2.00;;
37065;SDS011;22981;43.080;25.550;2024-01-16T11:38:29;2.40;;;2.17;;
37065;SDS011;22981;43.080;25.550;2024-01-16T11:40:58;1.90;;;1.35;;
37065;SDS011;22981;43.080;25.550;2024-01-16T11:46:07;1.40;;;1.30;;
37065;SDS011;22981;43.080;25.550;2024-01-16T11:48:35;1.60;;;1.50;;
37065;SDS011;22981;43.080;25.550;2024-01-16T11:51:25;1.70;;;1.60;;
37065;SDS011;22981;43.080;25.550;2024-01-16T11:53:37;2.22;;;1.40;;
37065;SDS011;22981;43.080;25.550;2024-01-16T12:01:47;7.95;;;4.12;;
37065;SDS011;22981;43.080;25.550;2024-01-16T12:04:18;24.40;;;13.90;;
37065;SDS011;22981;43.080;25.550;2024-01-16T12:06:56;2.30;;;1.92;;
37065;SDS011;22981;43.080;25.550;2024-01-16T12:09:30;2.25;;;1.87;;
37065;SDS011;22981;43.080;25.550;2024-01-16T12:11:59;6.08;;;4.25;;
37065;SDS011;22981;43.080;25.550;2024-01-16T12:14:27;13.88;;;8.33;;
37065;SDS011;22981;43.080;25.550;2024-01-16T12:17:08;31.85;;;16.67;;
37065;SDS011;22981;43.080;25.550;2024-01-16T12:19:37;58.90;;;30.02;;
37065;SDS011;22981;43.080;25.550;2024-01-16T12:22:08;2.77;;;2.12;;
37065;SDS011;22981;43.080;25.550;2024-01-16T12:24:36;5.92;;;4.25;;
37065;SDS011;22981;43.080;25.550;2024-01-16T12:27:04;4.47;;;3.50;;
37065;SDS011;22981;43.080;25.550;2024-01-16T12:29:34;4.55;;;2.52;;
37065;SDS011;22981;43.080;25.550;2024-01-16T12:32:05;7.55;;;2.60;;
37065;SDS011;22981;43.080;25.550;2024-01-16T12:34:45;6.83;;;4.30;;
37065;SDS011;22981;43.080;25.550;2024-01-16T12:37:16;4.58;;;3.40;;
37065;SDS011;22981;43.080;25.550;2024-01-16T12:39:45;3.60;;;2.90;;
37065;SDS011;22981;43.080;25.550;2024-01-16T12:42:13;2.92;;;2.35;;
37065;SDS011;22981;43.080;25.550;2024-01-16T12:44:41;4.65;;;3.20;;
37065;SDS011;22981;43.080;25.550;2024-01-16T12:47:10;3.08;;;2.33;;
37065;SDS011;22981;43.080;25.550;2024-01-16T12:49:41;3.77;;;3.20;;
37065;SDS011;22981;43.080;25.550;2024-01-16T12:52:17;3.80;;;2.85;;
37065;SDS011;22981;43.080;25.550;2024-01-16T12:54:46;2.58;;;2.08;;
37065;SDS011;22981;43.080;25.550;2024-01-16T12:57:18;3.37;;;2.80;;
37065;SDS011;22981;43.080;25.550;2024-01-16T12:59:46;3.92;;;3.05;;
37065;SDS011;22981;43.080;25.550;2024-01-16T13:02:21;6.33;;;2.83;;
37065;SDS011;22981;43.080;25.550;2024-01-16T13:04:55;4.53;;;2.83;;
37065;SDS011;22981;43.080;25.550;2024-01-16T13:07:29;3.58;;;3.20;;
37065;SDS011;22981;43.080;25.550;2024-01-16T13:10:06;3.15;;;2.77;;
37065;SDS011;22981;43.080;25.550;2024-01-16T13:12:34;3.27;;;2.52;;
37065;SDS011;22981;43.080;25.550;2024-01-16T13:15:03;5.05;;;4.55;;
37065;SDS011;22981;43.080;25.550;2024-01-16T13:17:34;3.85;;;3.33;;
37065;SDS011;22981;43.080;25.550;2024-01-16T13:20:02;7.25;;;4.30;;
37065;SDS011;22981;43.080;25.550;2024-01-16T13:22:31;4.90;;;4.28;;
37065;SDS011;22981;43.080;25.550;2024-01-16T13:24:59;4.37;;;3.98;;
37065;SDS011;22981;43.080;25.550;2024-01-16T13:27:26;3.35;;;2.65;;
37065;SDS011;22981;43.080;25.550;2024-01-16T13:29:56;4.33;;;3.15;;
37065;SDS011;22981;43.080;25.550;2024-01-16T13:32:23;7.58;;;3.77;;
37065;SDS011;22981;43.080;25.550;2024-01-16T13:34:51;3.40;;;3.10;;
37065;SDS011;22981;43.080;25.550;2024-01-16T13:37:20;10.00;;;4.92;;
37065;SDS011;22981;43.080;25.550;2024-01-16T13:39:48;5.35;;;3.60;;
37065;SDS011;22981;43.080;25.550;2024-01-16T13:42:16;6.03;;;3.67;;
37065;SDS011;22981;43.080;25.550;2024-01-16T13:44:45;6.37;;;3.90;;
37065;SDS011;22981;43.080;25.550;2024-01-16T13:47:14;6.37;;;4.20;;
37065;SDS011;22981;43.080;25.550;2024-01-16T13:49:43;5.40;;;3.85;;
37065;SDS011;22981;43.080;25.550;2024-01-16T13:52:11;4.37;;;3.10;;
37065;SDS011;22981;43.080;25.550;2024-01-16T13:54:39;8.73;;;4.15;;
37065;SDS011;22981;43.080;25.550;2024-01-16T13:57:07;4.92;;;3.67;;
37065;SDS011;22981;43.080;25.550;2024-01-16T13:59:35;4.03;;;3.47;;
37065;SDS011;22981;43.080;25.550;2024-01-16T14:02:04;3.70;;;2.90;;
37065;SDS011;22981;43.080;25.550;2024-01-16T14:04:33;4.10;;;3.00;;
37065;SDS011;22981;43.080;25.550;2024-01-16T14:07:01;4.10;;;3.20;;
37065;SDS011;22981;43.080;25.550;2024-01-16T14:09:32;4.17;;;3.77;;
37065;SDS011;22981;43.080;25.550;2024-01-16T14:12:01;3.42;;;2.92;;
37065;SDS011;22981;43.080;25.550;2024-01-16T14:14:29;5.45;;;4.35;;
37065;SDS011;22981;43.080;25.550;2024-01-16T14:16:57;4.83;;;3.45;;
37065;SDS011;22981;43.080;25.550;2024-01-16T14:19:24;20.77;;;17.57;;
37065;SDS011;22981;43.080;25.550;2024-01-16T14:21:52;20.48;;;18.67;;
37065;SDS011;22981;43.080;25.550;2024-01-16T14:24:20;72.25;;;36.45;;
37065;SDS011;22981;43.080;25.550;2024-01-16T14:26:48;43.05;;;27.60;;
37065;SDS011;22981;43.080;25.550;2024-01-16T14:29:15;28.80;;;25.50;;
37065;SDS011;22981;43.080;25.550;2024-01-16T14:31:44;9.93;;;8.20;;
37065;SDS011;22981;43.080;25.550;2024-01-16T14:34:13;4.60;;;4.20;;
37065;SDS011;22981;43.080;25.550;2024-01-16T14:36:41;34.35;;;24.70;;
37065;SDS011;22981;43.080;25.550;2024-01-16T14:39:09;27.15;;;20.97;;
37065;SDS011;22981;43.080;25.550;2024-01-16T14:41:39;22.15;;;19.37;;
37065;SDS011;22981;43.080;25.550;2024-01-16T14:44:08;13.35;;;12.13;;
37065;SDS011;22981;43.080;25.550;2024-01-16T14:46:36;4.70;;;4.30;;
37065;SDS011;22981;43.080;25.550;2024-01-16T14:49:03;4.90;;;4.47;;
37065;SDS011;22981;43.080;25.550;2024-01-16T14:51:31;7.12;;;6.53;;
37065;SDS011;22981;43.080;25.550;2024-01-16T14:53:58;6.45;;;5.80;;